createdAt,value
2023-02-13T00:02:18.599Z,7.25
2023-02-13T00:06:21.192Z,7.10
2023-02-13T00:10:24.589Z,7.19
2023-02-13T00:14:27.646Z,7.26
2023-02-13T00:18:33.163Z,7.24
2023-02-13T00:22:38.889Z,7.24
2023-02-13T00:26:41.646Z,7.11
2023-02-13T00:30:44.929Z,6.85
2023-02-13T00:34:47.272Z,6.68
2023-02-13T00:38:49.345Z,6.65
2023-02-13T00:42:51.773Z,6.60
2023-02-13T00:46:54.672Z,6.60
2023-02-13T00:50:57.580Z,6.65
2023-02-13T00:54:59.923Z,6.76
2023-02-13T00:59:01.637Z,6.87
2023-02-13T01:03:03.440Z,6.88
2023-02-13T01:07:05.872Z,6.78
2023-02-13T01:11:08.761Z,6.79
2023-02-13T01:15:10.717Z,6.84
2023-02-13T01:19:12.767Z,6.87
2023-02-13T01:23:15.519Z,6.58
2023-02-13T01:27:18.166Z,6.37
2023-02-13T01:31:20.998Z,6.27
2023-02-13T01:35:22.951Z,6.25
2023-02-13T01:39:25.042Z,6.23
2023-02-13T01:43:59.268Z,6.35
2023-02-13T01:48:10.711Z,6.51
2023-02-13T01:52:14.388Z,6.65
2023-02-13T01:56:41.422Z,6.78
2023-02-13T02:00:49.088Z,6.82
2023-02-13T02:04:51.083Z,6.88
2023-02-13T02:08:56.876Z,6.99
2023-02-13T02:13:13.622Z,7.05
2023-02-13T02:17:16.868Z,7.06
2023-02-13T02:21:52.491Z,7.08
2023-02-13T02:26:22.156Z,7.08
2023-02-13T02:30:47.177Z,7.13
2023-02-13T02:34:58.081Z,7.15
2023-02-13T02:39:19.503Z,7.12
2023-02-13T02:43:54.843Z,6.96
2023-02-13T02:48:25.048Z,6.83
2023-02-13T02:52:38.757Z,6.64
2023-02-13T02:56:44.044Z,6.58
2023-02-13T03:01:05.616Z,6.66
2023-02-13T03:05:36.276Z,6.56
2023-02-13T03:10:03.445Z,6.51
2023-02-13T03:14:06.818Z,6.65
2023-02-13T03:18:27.370Z,6.78
2023-02-13T03:22:40.728Z,6.89
2023-02-13T03:27:01.124Z,6.94
2023-02-13T03:31:25.765Z,7.04
2023-02-13T03:36:11.037Z,7.10
2023-02-13T03:40:19.983Z,7.19
2023-02-13T03:44:46.963Z,7.28
2023-02-13T03:49:09.299Z,7.34
2023-02-13T03:53:14.143Z,7.34
2023-02-13T03:57:38.055Z,7.35
2023-02-13T04:06:05.992Z,7.38
2023-02-13T04:10:15.780Z,7.39
2023-02-13T04:14:25.696Z,7.41
2023-02-13T04:18:32.201Z,7.35
2023-02-13T04:22:34.865Z,7.16
2023-02-13T04:26:41.447Z,7.07
2023-02-13T04:30:43.554Z,6.97
2023-02-13T04:34:46.125Z,6.90
2023-02-13T04:38:48.587Z,6.96
2023-02-13T04:42:51.375Z,6.98
2023-02-13T04:46:54.706Z,7.01
2023-02-13T04:50:57.426Z,7.00
2023-02-13T04:54:59.756Z,6.98
2023-02-13T04:59:02.229Z,7.02
2023-02-13T05:03:06.716Z,7.03
2023-02-13T05:07:08.582Z,7.01
2023-02-13T05:11:10.437Z,7.00
2023-02-13T05:15:12.185Z,7.06
2023-02-13T05:19:14.212Z,7.08
2023-02-13T05:23:25.643Z,7.04
2023-02-13T05:27:27.533Z,7.07
2023-02-13T05:31:29.636Z,7.10
2023-02-13T05:35:31.480Z,7.10
2023-02-13T05:39:33.356Z,7.10
2023-02-13T05:43:35.205Z,7.12
2023-02-13T05:47:36.970Z,7.14
2023-02-13T05:51:38.908Z,7.17
2023-02-13T05:55:40.629Z,7.20
2023-02-13T05:59:42.401Z,7.09
2023-02-13T06:03:44.192Z,7.02
2023-02-13T06:07:46.078Z,7.02
2023-02-13T06:11:47.879Z,7.01
2023-02-13T06:15:50.401Z,7.05
2023-02-13T06:19:52.219Z,7.06
2023-02-13T06:23:54.086Z,7.05
2023-02-13T06:27:56.242Z,7.06
2023-02-13T06:31:58.518Z,7.10
2023-02-13T06:36:01.105Z,7.11
2023-02-13T06:40:03.311Z,7.15
2023-02-13T06:44:07.496Z,7.19
2023-02-13T06:48:09.494Z,7.24
2023-02-13T06:52:11.393Z,7.24
2023-02-13T06:56:13.285Z,7.32
2023-02-13T07:00:16.838Z,7.32
2023-02-13T07:04:18.771Z,7.33
2023-02-13T07:08:20.646Z,7.35
2023-02-13T07:12:22.553Z,7.36
2023-02-13T07:16:24.540Z,7.40
2023-02-13T07:20:27.648Z,7.39
2023-02-13T07:24:29.328Z,7.38
2023-02-13T07:28:31.451Z,7.42
2023-02-13T07:32:33.350Z,7.43
2023-02-13T07:36:35.261Z,7.43
2023-02-13T07:40:37.173Z,7.48
2023-02-13T07:44:39.048Z,7.46
2023-02-13T07:48:40.812Z,7.39
2023-02-13T07:52:42.603Z,7.33
2023-02-13T07:56:44.489Z,7.24
2023-02-13T08:00:46.255Z,7.16
2023-02-13T08:04:48.180Z,7.23
2023-02-13T08:09:10.001Z,7.22
2023-02-13T08:13:13.043Z,7.27
2023-02-13T08:17:14.961Z,7.25
2023-02-13T08:21:16.834Z,7.23
2023-02-13T08:25:19.302Z,7.31
2023-02-13T08:29:21.277Z,7.33
2023-02-13T08:33:23.160Z,7.30
2023-02-13T08:37:25.284Z,7.42
2023-02-13T08:41:28.146Z,7.43
2023-02-13T08:45:30.432Z,7.47
2023-02-13T08:49:33.018Z,7.49
2023-02-13T08:53:35.791Z,7.49
2023-02-13T08:57:37.536Z,7.46
2023-02-13T09:01:40.113Z,7.48
2023-02-13T09:05:42.307Z,7.40
2023-02-13T09:09:44.216Z,7.28
2023-02-13T09:13:47.761Z,7.27
2023-02-13T09:17:50.171Z,7.22
2023-02-13T09:21:51.929Z,7.17
2023-02-13T09:25:53.821Z,7.20
2023-02-13T09:29:55.806Z,7.24
2023-02-13T09:33:57.733Z,7.28
2023-02-13T09:38:00.299Z,7.32
2023-02-13T09:42:05.177Z,7.45
2023-02-13T09:46:15.157Z,7.45
2023-02-13T09:50:29.743Z,7.51
2023-02-13T09:54:32.002Z,7.46
2023-02-13T09:58:41.863Z,7.62
2023-02-13T10:03:06.454Z,7.67
2023-02-13T10:07:20.004Z,7.80
2023-02-13T10:11:32.006Z,7.94
2023-02-13T10:15:48.544Z,7.92
2023-02-13T10:19:56.480Z,8.08
2023-02-13T10:24:06.867Z,8.16
2023-02-13T10:28:25.071Z,8.05
2023-02-13T10:32:51.448Z,8.03
2023-02-13T10:36:53.467Z,8.07
2023-02-13T10:41:18.136Z,8.11
2023-02-13T10:45:25.837Z,8.22
2023-02-13T10:50:01.013Z,8.17
2023-02-13T10:54:20.908Z,8.29
2023-02-13T10:58:52.544Z,8.31
2023-02-13T11:02:56.124Z,8.48
2023-02-13T11:07:03.546Z,8.40
2023-02-13T11:11:35.475Z,8.27
2023-02-13T11:15:37.346Z,8.21
2023-02-13T11:19:51.116Z,8.05
2023-02-13T11:23:56.937Z,7.96
2023-02-13T11:28:17.100Z,8.01
2023-02-13T11:32:25.989Z,8.08
2023-02-13T11:36:32.028Z,8.25
2023-02-13T11:40:34.011Z,8.26
2023-02-13T11:44:35.850Z,8.19
2023-02-13T11:48:37.757Z,8.20
2023-02-13T11:52:39.567Z,8.15
2023-02-13T11:57:04.006Z,8.13
2023-02-13T12:01:27.981Z,8.14
2023-02-13T12:05:29.958Z,8.21
2023-02-13T12:09:32.048Z,8.21
2023-02-13T12:13:38.519Z,8.18
2023-02-13T12:17:44.592Z,8.33
2023-02-13T12:22:15.240Z,8.37
2023-02-13T12:26:31.070Z,8.33
2023-02-13T12:30:52.061Z,8.30
2023-02-13T12:35:21.021Z,8.29
2023-02-13T12:39:36.753Z,8.19
2023-02-13T12:43:41.490Z,8.20
2023-02-13T12:48:06.674Z,8.18
2023-02-13T12:52:26.953Z,8.20
2023-02-13T12:56:31.683Z,8.17
2023-02-13T13:00:50.187Z,8.15
2023-02-13T13:04:55.096Z,8.23
2023-02-13T13:09:16.759Z,8.24
2023-02-13T13:13:37.768Z,8.21
2023-02-13T13:17:50.251Z,8.11
2023-02-13T13:21:59.193Z,8.19
2023-02-13T13:26:35.467Z,8.32
2023-02-13T13:30:38.230Z,8.37
2023-02-13T13:34:40.173Z,8.39
2023-02-13T13:38:41.871Z,8.38
2023-02-13T13:42:51.361Z,8.42
2023-02-13T13:47:04.238Z,8.45
2023-02-13T13:51:07.575Z,8.49
2023-02-13T13:55:47.361Z,8.52
2023-02-13T13:59:51.291Z,8.42
2023-02-13T14:04:04.627Z,8.38
2023-02-13T14:08:37.286Z,8.38
2023-02-13T14:12:50.157Z,8.38
2023-02-13T14:16:53.017Z,8.60
2023-02-13T14:20:58.887Z,8.71
2023-02-13T14:25:04.975Z,8.82
2023-02-13T14:29:09.741Z,8.82
2023-02-13T14:33:27.378Z,8.81
2023-02-13T14:37:39.121Z,8.83
2023-02-13T14:42:05.801Z,8.87
2023-02-13T14:46:25.863Z,8.89
2023-02-13T14:50:31.881Z,8.89
2023-02-13T14:54:48.753Z,8.86
2023-02-13T14:59:09.139Z,8.79
2023-02-13T15:03:40.275Z,8.71
2023-02-13T15:08:19.452Z,8.67
2023-02-13T15:12:36.256Z,8.54
2023-02-13T15:16:38.070Z,8.57
2023-02-13T15:20:42.868Z,8.58
2023-02-13T15:24:47.754Z,8.55
2023-02-13T15:29:01.528Z,8.55
2023-02-13T15:33:17.296Z,8.49
2023-02-13T15:37:25.325Z,8.48
2023-02-13T15:41:37.010Z,8.42
2023-02-13T15:45:43.478Z,8.39
2023-02-13T15:49:47.803Z,8.37
2023-02-13T15:53:55.203Z,8.31
2023-02-13T15:57:59.616Z,8.25
2023-02-13T16:02:03.902Z,8.21
2023-02-13T16:06:07.585Z,8.17
2023-02-13T16:10:18.148Z,8.14
2023-02-13T16:14:28.912Z,8.12
2023-02-13T16:18:30.944Z,8.09
2023-02-13T16:22:45.851Z,8.10
2023-02-13T16:26:49.100Z,8.11
2023-02-13T16:30:56.668Z,8.11
2023-02-13T16:35:17.209Z,8.10
2023-02-13T16:39:30.524Z,8.09
2023-02-13T16:43:37.666Z,8.03
2023-02-13T16:47:39.538Z,7.98
2023-02-13T16:51:48.613Z,8.00
2023-02-13T16:56:00.716Z,7.90
2023-02-13T17:00:03.575Z,7.94
2023-02-13T17:04:22.056Z,7.87
2023-02-13T17:08:23.847Z,7.80
2023-02-13T17:12:27.400Z,7.76
2023-02-13T17:16:29.505Z,7.75
2023-02-13T17:20:33.481Z,7.66
2023-02-13T17:24:35.548Z,7.71
2023-02-13T17:28:37.284Z,7.67
2023-02-13T17:32:39.152Z,7.73
2023-02-13T17:36:40.951Z,7.78
2023-02-13T17:40:44.291Z,7.81
2023-02-13T17:44:46.665Z,7.79
2023-02-13T17:48:48.583Z,7.82
2023-02-13T17:52:50.805Z,7.80
2023-02-13T17:56:53.071Z,7.76
2023-02-13T18:00:55.240Z,7.75
2023-02-13T18:04:57.380Z,7.73
2023-02-13T18:08:59.248Z,7.56
2023-02-13T18:13:04.569Z,7.43
2023-02-13T18:17:06.597Z,7.34
2023-02-13T18:21:08.654Z,7.34
2023-02-13T18:25:12.375Z,7.23
2023-02-13T18:29:14.331Z,7.20
2023-02-13T18:33:16.487Z,7.13
2023-02-13T18:37:20.040Z,7.09
2023-02-13T18:41:21.963Z,7.05
2023-02-13T18:45:24.235Z,7.10
2023-02-13T18:49:26.505Z,7.12
2023-02-13T18:53:29.453Z,7.04
2023-02-13T18:57:31.452Z,6.97
2023-02-13T19:01:34.883Z,6.94
2023-02-13T19:05:40.034Z,6.98
2023-02-13T19:09:43.342Z,7.07
2023-02-13T19:13:46.709Z,7.09
2023-02-13T19:17:48.721Z,7.05
2023-02-13T19:21:50.499Z,7.09
2023-02-13T19:25:52.465Z,7.12
2023-02-13T19:29:54.405Z,7.10
2023-02-13T19:33:59.248Z,7.14
2023-02-13T19:38:01.353Z,7.18
2023-02-13T19:42:03.320Z,7.17
2023-02-13T19:46:12.389Z,7.21
2023-02-13T19:50:16.160Z,7.14
2023-02-13T19:54:18.186Z,7.09
2023-02-13T19:58:20.037Z,7.12
2023-02-13T20:02:22.193Z,7.17
2023-02-13T20:06:34.449Z,7.21
2023-02-13T20:10:36.648Z,7.23
2023-02-13T20:14:38.733Z,7.27
2023-02-13T20:18:42.744Z,7.22
2023-02-13T20:22:48.616Z,7.23
2023-02-13T20:26:50.435Z,7.23
2023-02-13T20:30:52.257Z,7.23
2023-02-13T20:34:59.911Z,7.20
2023-02-13T20:39:04.669Z,7.14
2023-02-13T20:43:06.455Z,7.15
2023-02-13T20:47:08.468Z,7.18
2023-02-13T20:51:12.928Z,7.20
2023-02-13T20:55:15.043Z,7.18
2023-02-13T20:59:16.908Z,7.14
2023-02-13T21:03:18.702Z,7.21
2023-02-13T21:07:20.717Z,7.17
2023-02-13T21:11:23.437Z,7.20
2023-02-13T21:15:27.761Z,7.25
2023-02-13T21:19:30.738Z,7.32
2023-02-13T21:23:33.279Z,7.46
2023-02-13T21:27:35.019Z,7.49
2023-02-13T21:31:43.537Z,7.45
2023-02-13T21:35:45.380Z,7.44
2023-02-13T21:39:47.220Z,7.37
2023-02-13T21:43:50.988Z,7.28
2023-02-13T21:47:56.394Z,7.26
2023-02-13T21:51:58.156Z,7.25
2023-02-13T21:56:10.244Z,7.25
2023-02-13T22:00:12.924Z,7.26
2023-02-13T22:04:17.175Z,7.22
2023-02-13T22:08:18.948Z,7.18
2023-02-13T22:12:20.733Z,7.20
2023-02-13T22:16:23.444Z,7.10
2023-02-13T22:20:25.312Z,6.98
2023-02-13T22:24:27.232Z,6.92
2023-02-13T22:28:29.666Z,6.86
2023-02-13T22:32:31.508Z,6.88
2023-02-13T22:36:37.893Z,6.94
2023-02-13T22:40:39.760Z,7.01
2023-02-13T22:44:41.513Z,7.06
2023-02-13T22:48:45.575Z,7.08
2023-02-13T22:52:47.838Z,7.02
2023-02-13T22:56:49.561Z,7.01
2023-02-13T23:00:51.394Z,7.00
2023-02-13T23:04:53.656Z,7.00
2023-02-13T23:08:55.991Z,7.00
2023-02-13T23:12:57.791Z,6.92
2023-02-13T23:17:17.998Z,6.84
2023-02-13T23:21:20.010Z,6.85
2023-02-13T23:25:22.093Z,6.84
2023-02-13T23:29:24.446Z,6.79
2023-02-13T23:33:26.631Z,6.84
2023-02-13T23:37:28.611Z,6.86
2023-02-13T23:41:31.071Z,6.82
2023-02-13T23:45:33.584Z,6.85
2023-02-13T23:49:36.080Z,6.83
2023-02-13T23:53:37.997Z,6.85
2023-02-13T23:57:41.346Z,6.85
